Airfield :
LOGIN :

Register | Disclaimer

   EN    FR    IT 

 










Legend :    VFR   Marginal VFR   IFR   Intensive IFR   Very Intensive IFR
Visi :
Ceiling :
>= 8 km
>= 3000ft
5 to 8 km
1000 to 3000 ft
1500m to 5 km
500 to 1000 ft
800 to 1500m
200 to 500 ft
< 800m
< 200 ft
Symbols :   Thunderstorms  Fog  Heavy snow  Heavy precipitations  Wind > 20 kt
SIGMETs :     Misc.  Thunderstorms  Icing  Turbulence  Mountain Waves  Volcanic Ashes







- Airport Elevation : -15 ft
- IATA code : RTM


EHRD - Rotterdam Zestienhoven

CURRENT METAR :
  • 211655Z AUTO 25017KT 220V290 9999 FEW024CB 14/08 Q1009 REDZ NOSIG

EXPIRED METARs :
  • 211625Z AUTO 23011KT 210V280 9999 TS FEW015CB 12/09 Q1009 RERA BECMG NSW SCT040
  • 211555Z AUTO 24018KT 200V270 9999 NSC 15/05 Q1009 TEMPO 26025G35KT 5000 SHRA SCT040CB
  • 211525Z AUTO 24021KT 210V270 9999 FEW045 16/06 Q1009 NOSIG
  • 211455Z AUTO 24020G32KT 200V280 9999 FEW043 15/06 Q1009 NOSIG
  • 211425Z AUTO 25023G34KT 220V290 9999 FEW046 15/06 Q1009 NOSIG

TAF COR TAF EHRD
Valid from the 21 at 12:00 until the 22 at 18:00 UTC


211122Z 2112/2218 26020G30KT 9999 FEW025TCU SCT030
BECMG 2116/2118 23020G30KT
TEMPO 2116/2203 6000 SHRA SCT022CB BKN030
PROB30
TEMPO 2116/2121 26027G40KT 4000 TSRAGS
BECMG 2118/2121 28022G32KT SCT022
BECMG 2122/2201 27015KT
BECMG 2215/2218 25010KT
No reported NOTAMs for that airfield.
1 SIGMET reported for the Amsterdam FIR (EHAA) :
 
Embedded thunderstorms
EHAA SIGMET 3 VALID 211630/211730 EHDB
EHAA AMSTERDAM FIR EMBD TS OBS APRX 15KM WID LINE BTN N5119 E00419 - N5214 E00450 - N5318 E00704 TOP FL300 MOV E 35KT WKN=



MET'MAP, your aeronautical weather chart ! - Copyright ORBIFLY December 2007 - Disclaimer

ORBIFLY MET'MAP TEAM :

Programming & Development : Alexandra Zaïnal
Concept & Development : Baudouin d'Aumeries
Co-Development & Prog : Marc-Olivier Méhu
Technical & hardware support : Manuel Goepfert

Contact : metmap@orbifly.com




SOURCES & CREDITS :

   NOAA